Kings Mills, Ohio
Current Conditions -  °F | °C
As of 3:53 PM on Thursday 18 Dec 2014 (Local Time) from KHAO Reporting Station
Overcast Overcast  
Wind Chill: 30°   Ceiling: 2300
Heat Index: 30°   Visibility: 10mi
Dew Point: 21°   Wind: 3mph
Humidity: 69%   Direction: 10°N
Pressure: 30.24"   Gusts: NA
Location:  39.36°N, 84.25°W
Report Text: KHAO 182053Z AUTO 01003KT 10SM OVC023 M01/M06 A3024 RMK AO2 SLP248 T10111061 56011
Loading
Personal Weather Stations






























Interactive Weather Map New forecast layout! Learn more

10-Day Weather Forecast

Advertisements
Track Severe Weather on mobile